Latest Weather Observations for Rocky Gully South

IDW60801

Issued at 11:35 pm WST Thursday 30 October 2014 (issued every 30 minutes, with the page automatically refreshed every 10 minutes)

About weather observations | Map of weather stations | Latest weather observations for WA | Other Formats
Station Details ID: 009964 Name: ROCKY GULLY Lat: -34.57 Lon: 117.01 Height: 250.0 m
Data from the previous 72 hours. | See also: Recent months at Rocky Gully South
Date/Time
WST
Temp
°C
App
Temp
°C
Dew
Point
Rel
Hum
%
Delta-T
°C
Wind Press
QNH
hPa
Press
MSL
hPa
Rain
since 9 am
mm
Dir
 
Spd
km/h
Gust
km/h
Spd
kts
Gust
kts
30/11:30pm 12.8 10.8 11.5 92 0.7 NW 13 26 7 14 - - 1.0
30/11:00pm 12.9 10.8 11.3 90 0.9 NW 13 22 7 12 - - 0.4
30/10:30pm 13.1 11.3 11.0 87 1.1 WNW 11 20 6 11 - - 0.0
30/10:00pm 12.9 11.5 10.8 87 1.1 WNW 9 19 5 10 - - 0.0
30/09:30pm 13.2 11.9 11.1 87 1.1 NW 9 17 5 9 - - 0.0
30/09:00pm 14.1 11.5 10.7 80 1.8 W 15 28 8 15 - - 0.0
30/08:30pm 14.7 12.4 10.5 76 2.2 W 13 20 7 11 - - 0.0
30/08:00pm 14.8 12.1 10.4 75 2.3 W 15 26 8 14 - - 0.0
30/07:30pm 15.6 12.8 9.9 69 3.0 W 15 26 8 14 - - 0.0
30/07:00pm 16.0 13.0 9.4 65 3.5 W 15 30 8 16 - - 0.0
30/06:30pm 16.2 13.6 9.2 63 3.7 W 13 20 7 11 - - 0.0
30/06:00pm 16.4 13.2 8.6 60 4.0 WNW 15 24 8 13 - - 0.0
30/05:30pm 17.7 14.1 8.3 54 4.9 W 17 32 9 17 - - 0.0
30/05:00pm 18.1 14.8 9.5 57 4.6 W 17 32 9 17 - - 0.0
30/04:30pm 18.6 16.1 9.7 56 4.8 W 13 22 7 12 - - 0.0
30/04:00pm 19.2 15.3 8.8 51 5.5 W 19 32 10 17 - - 0.0
30/03:30pm 19.9 16.0 9.5 51 5.6 WSW 20 35 11 19 - - 0.0
30/03:00pm 20.0 17.0 9.3 50 5.7 WSW 15 24 8 13 - - 0.0
30/02:30pm 21.1 18.3 10.0 49 6.1 W 15 26 8 14 - - 0.0
30/02:00pm 20.7 17.5 9.9 50 5.9 WNW 17 28 9 15 - - 0.0
30/01:30pm 20.4 17.4 10.5 53 5.4 W 17 28 9 15 - - 0.0
30/01:00pm 20.0 17.4 10.7 55 5.1 WNW 15 24 8 13 - - 0.0
30/12:30pm 19.0 16.1 9.5 54 5.1 WNW 15 26 8 14 - - 0.0
30/12:00pm 18.5 16.0 9.6 56 4.8 WNW 13 24 7 13 - - 0.0
30/11:30am 18.0 15.2 10.1 60 4.3 NW 15 28 8 15 - - 0.0
30/11:00am 16.7 14.4 10.5 67 3.3 WNW 13 20 7 11 - - 0.0
30/10:30am 16.3 14.1 10.8 70 3.0 NNW 13 20 7 11 - - 0.0
30/10:00am 15.5 14.5 11.1 75 2.4 NW 7 17 4 9 - - 0.0
30/09:30am 14.8 13.7 11.9 83 1.6 WSW 9 13 5 7 - - 0.0
30/09:00am 13.7 12.6 12.1 90 0.9 W 9 13 5 7 - - 0.0
30/08:30am 13.0 11.8 11.6 91 0.8 WSW 9 15 5 8 - - 0.0
30/08:00am 12.9 12.3 11.6 92 0.7 W 6 11 3 6 - - 0.0
30/07:30am 12.9 12.1 11.6 92 0.7 WSW 7 11 4 6 - - 0.0
30/07:00am 12.7 11.8 11.4 92 0.7 WSW 7 11 4 6 - - 0.0
30/06:30am 12.5 11.6 11.2 92 0.7 SW 7 11 4 6 - - 0.0
30/06:00am 12.7 12.0 11.4 92 0.7 WSW 6 9 3 5 - - 0.0
30/05:30am 12.6 12.2 11.2 91 0.7 WSW 4 7 2 4 - - 0.0
30/05:00am 12.7 12.3 11.1 90 0.9 SW 4 7 2 4 - - 0.0
30/04:30am 12.8 13.1 11.0 89 1.0 CALM 0 0 0 0 - - 0.0
30/04:00am 12.9 13.3 11.1 89 1.0 CALM 0 0 0 0 - - 0.0
30/03:30am 12.8 13.1 11.0 89 1.0 CALM 0 0 0 0 - - 0.0
30/03:00am 12.8 12.7 10.9 88 1.0 SE 2 6 1 3 - - 0.0
30/02:30am 12.9 12.1 11.0 88 1.0 ESE 6 9 3 5 - - 0.0
30/02:00am 13.0 12.0 10.9 87 1.1 S 7 11 4 6 - - 0.0
30/01:30am 13.1 12.2 10.8 86 1.2 SSE 6 9 3 5 - - 0.0
30/01:00am 13.1 11.7 10.8 86 1.2 S 9 15 5 8 - - 0.0
30/12:30am 13.1 11.6 10.6 85 1.3 SSE 9 13 5 7 - - 0.0
30/12:00am 13.4 12.5 10.6 83 1.5 SSE 6 11 3 6 - - 0.0
 
Date/Time
WST
Temp
°C
App
Temp
°C
Dew
Point
Rel
Hum
%
Delta-T
°C
Wind Press
QNH
hPa
Press
MSL
hPa
Rain
since 9 am
mm
Dir
 
Spd
km/h
Gust
km/h
Spd
kts
Gust
kts
29/11:30pm 13.5 12.9 10.5 82 1.6 SSE 4 9 2 5 - - 0.0
29/11:00pm 13.5 12.5 10.3 81 1.7 SE 6 11 3 6 - - 0.0
29/10:30pm 13.5 12.4 10.5 82 1.6 S 7 11 4 6 - - 0.0
29/10:00pm 13.5 11.6 10.5 82 1.6 SSE 11 15 6 8 - - 0.0
29/09:30pm 13.4 11.5 10.4 82 1.6 SSE 11 19 6 10 - - 0.0
29/09:00pm 12.9 11.0 10.4 85 1.3 SSE 11 19 6 10 - - 0.0
29/08:30pm 12.8 11.1 10.0 83 1.5 SSE 9 15 5 8 - - 0.0
29/08:00pm 13.5 11.5 10.3 81 1.7 S 11 13 6 7 - - 0.0
29/07:30pm 14.5 13.6 10.7 78 2.0 SE 6 7 3 4 - - 0.0
29/07:00pm 15.4 14.0 11.0 75 2.4 SE 9 13 5 7 - - 0.0
29/06:30pm 16.3 14.9 11.0 71 2.9 SE 9 19 5 10 - - 0.0
29/06:00pm 17.3 15.6 11.3 68 3.3 SSE 11 15 6 8 - - 0.0
29/05:30pm 17.2 15.2 11.5 69 3.1 SSE 13 20 7 11 - - 0.0
29/05:00pm 18.3 16.4 11.8 66 3.6 SSE 13 20 7 11 - - 0.0
29/04:30pm 19.2 16.9 11.7 62 4.2 SSE 15 20 8 11 - - 0.0
29/04:00pm 20.1 18.0 11.3 57 4.9 S 13 19 7 10 - - 0.0
29/03:30pm 20.5 19.2 12.5 60 4.6 SSE 11 20 6 11 - - 0.0
29/03:00pm 20.5 18.9 11.7 57 4.9 SSE 11 20 6 11 - - 0.0
29/02:30pm 20.1 18.6 11.8 59 4.7 SSE 11 17 6 9 - - 0.0
29/02:00pm 19.8 18.7 11.8 60 4.5 SE 9 20 5 11 - - 0.0
29/01:30pm 18.6 16.9 11.2 62 4.1 S 11 19 6 10 - - 0.0
29/01:00pm 18.1 16.5 11.7 66 3.6 SSE 11 19 6 10 - - 0.0
29/12:30pm 18.2 17.3 12.6 70 3.2 SSE 9 15 5 8 - - 0.0
29/12:00pm 16.9 15.4 11.8 72 2.8 SE 11 15 6 8 - - 0.0
29/11:30am 15.6 12.9 11.6 77 2.2 S 17 26 9 14 - - 0.0
29/11:00am 15.5 13.2 11.9 79 2.0 S 15 28 8 15 - - 0.0
29/10:30am 16.0 14.7 12.4 79 2.0 S 11 17 6 9 - - 0.0
29/10:00am 16.2 15.2 12.2 77 2.2 SSE 9 15 5 8 - - 0.0
29/09:30am 16.3 15.3 12.3 77 2.2 SE 9 11 5 6 - - 0.0
29/09:00am 15.4 14.3 11.8 79 2.0 SSE 9 15 5 8 - - 0.0
29/08:30am 14.8 12.5 11.8 82 1.6 S 15 20 8 11 - - 0.0
29/08:00am 15.1 13.6 11.9 81 1.8 SSE 11 17 6 9 - - 0.0
29/07:30am 14.7 13.4 12.4 86 1.3 SSE 11 15 6 8 - - 0.0
29/07:00am 14.1 13.6 12.5 90 0.9 SSE 7 13 4 7 - - 0.0
29/06:30am 13.5 12.8 12.1 91 0.8 SSE 7 9 4 5 - - 0.0
29/06:00am 13.0 12.4 11.6 91 0.8 SSE 6 9 3 5 - - 0.0
29/05:30am 13.1 12.3 11.7 91 0.8 SSE 7 9 4 5 - - 0.0
29/05:00am 13.1 12.3 11.7 91 0.8 SSE 7 11 4 6 - - 0.0
29/04:30am 13.1 12.5 11.7 91 0.8 SE 6 9 3 5 - - 0.0
29/04:00am 13.1 12.5 11.7 91 0.8 SE 6 9 3 5 - - 0.0
29/03:30am 13.1 12.3 11.7 91 0.8 SE 7 9 4 5 - - 0.0
29/03:00am 13.0 12.1 11.4 90 0.9 SE 7 11 4 6 - - 0.0
29/02:30am 13.1 12.4 11.5 90 0.9 ESE 6 9 3 5 - - 0.0
29/02:00am 13.2 12.3 11.4 89 1.0 SSE 7 11 4 6 - - 0.0
29/01:30am 13.3 12.4 11.4 88 1.0 SSE 7 13 4 7 - - 0.0
29/01:00am 13.3 11.7 11.5 89 1.0 SSE 11 15 6 8 - - 0.0
29/12:30am 13.0 12.1 11.4 90 0.9 SE 7 11 4 6 - - 0.0
29/12:00am 12.8 11.9 11.4 91 0.7 SE 7 11 4 6 - - 0.0
 
Date/Time
WST
Temp
°C
App
Temp
°C
Dew
Point
Rel
Hum
%
Delta-T
°C
Wind Press
QNH
hPa
Press
MSL
hPa
Rain
since 9 am
mm
Dir
 
Spd
km/h
Gust
km/h
Spd
kts
Gust
kts
28/11:30pm 12.5 10.8 11.1 91 0.7 SSE 11 15 6 8 - - 0.0
28/11:00pm 12.3 10.9 10.9 91 0.7 SSE 9 15 5 8 - - 0.0
28/10:30pm 12.3 10.9 10.9 91 0.7 SSE 9 15 5 8 - - 0.0
28/10:00pm 12.4 10.6 10.8 90 0.8 SSE 11 15 6 8 - - 0.0
28/09:30pm 12.6 10.8 10.8 89 1.0 SSE 11 17 6 9 - - 0.0
28/09:00pm 12.9 11.1 11.0 88 1.0 SSE 11 17 6 9 - - 0.0
28/08:30pm 13.2 11.9 11.1 87 1.1 SSE 9 15 5 8 - - 0.0
28/08:00pm 13.6 11.9 11.3 86 1.2 SSE 11 17 6 9 - - 0.0
28/07:30pm 14.0 11.5 11.2 83 1.5 S 15 24 8 13 - - 0.0
28/07:00pm 14.8 12.7 11.0 78 2.0 S 13 20 7 11 - - 0.0
28/06:30pm 15.8 13.3 11.0 73 2.6 S 15 24 8 13 - - 0.0
28/06:00pm 17.0 14.2 11.3 69 3.1 S 17 26 9 14 - - 0.0
28/05:30pm 18.2 16.3 11.7 66 3.6 S 13 20 7 11 - - 0.0
28/05:00pm 19.5 17.1 11.5 60 4.5 S 15 22 8 12 - - 0.0
28/04:30pm 21.5 18.8 11.8 54 5.5 S 17 26 9 14 - - 0.0
28/04:00pm 23.0 22.1 11.4 48 6.6 S 7 20 4 11 - - 0.0
28/03:30pm 23.6 21.5 6.0 32 9.1 SSW 6 11 3 6 - - 0.0
28/03:00pm 23.3 20.9 5.2 31 9.2 NNW 7 15 4 8 - - 0.0
28/02:30pm 23.4 21.1 5.8 32 9.0 NW 7 13 4 7 - - 0.0
28/02:00pm 23.0 20.4 6.3 34 8.6 N 9 15 5 8 - - 0.0
28/01:30pm 22.7 20.8 9.1 42 7.4 N 9 15 5 8 - - 0.0
28/01:00pm 21.9 19.8 8.4 42 7.2 N 9 15 5 8 - - 0.0
28/12:30pm 20.9 19.2 8.2 44 6.7 NNE 7 13 4 7 - - 0.0
28/12:00pm 20.0 18.2 9.6 51 5.6 N 9 13 5 7 - - 0.0
28/11:30am 19.7 18.6 10.7 56 4.9 N 7 13 4 7 - - 0.0
28/11:00am 19.2 18.4 11.0 59 4.5 NNE 6 15 3 8 - - 0.0
28/10:30am 18.0 16.5 10.4 61 4.1 NE 9 17 5 9 - - 0.0
28/10:00am 17.1 15.8 11.2 68 3.2 NNE 9 17 5 9 - - 0.0
28/09:30am 16.0 15.0 10.3 69 3.0 NE 6 13 3 7 - - 0.0
28/09:00am 14.7 12.9 9.5 71 2.7 NNE 9 15 5 8 - - 0.2
28/08:30am 13.6 12.3 9.8 78 2.0 NNE 7 15 4 8 - - 0.2
28/08:00am 13.0 11.2 9.6 80 1.8 NNE 9 17 5 9 - - 0.2
28/07:30am 12.0 10.4 10.1 88 1.0 NE 9 13 5 7 - - 0.2
28/07:00am 11.1 10.0 10.0 93 0.6 NNE 6 9 3 5 - - 0.2
28/06:30am 9.6 8.0 8.7 94 0.4 NNE 7 9 4 5 - - 0.2
28/06:00am 7.4 5.5 6.5 94 0.4 NE 6 9 3 5 - - 0.2
28/05:30am 7.2 5.2 6.1 93 0.5 NE 6 7 3 4 - - 0.2
28/05:00am 8.1 6.1 7.2 94 0.4 NE 7 11 4 6 - - 0.2
28/04:30am 7.6 5.5 6.7 94 0.4 NE 7 9 4 5 - - 0.2
28/04:00am 7.3 5.1 6.4 94 0.4 NNE 7 9 4 5 - - 0.2
28/03:30am 5.7 3.2 4.7 93 0.4 NNE 7 9 4 5 - - 0.2
28/03:00am 7.3 5.3 6.2 93 0.5 NE 6 7 3 4 - - 0.2
28/02:30am 7.2 5.0 6.1 93 0.5 NNE 7 9 4 5 - - 0.2
28/02:00am 6.8 4.7 5.7 93 0.5 N 6 7 3 4 - - 0.2
28/01:30am 6.3 4.1 5.1 92 0.5 NNE 6 7 3 4 - - 0.2
28/01:00am 7.4 5.2 6.3 93 0.5 NNE 7 9 4 5 - - 0.2
28/12:30am 6.6 4.4 5.4 92 0.5 NE 6 7 3 4 - - 0.2
28/12:00am 7.3 5.6 6.1 92 0.6 ENE 4 7 2 4 - - 0.2

Other Formats:

Comma delimited format used in spreadsheet applications
http://www.bom.gov.au/fwo/IDW60801/IDW60801.94631.axf

JavaScript Object Notation format (JSON) in row-major order
http://www.bom.gov.au/fwo/IDW60801/IDW60801.94631.json